createdAt,value
2022-07-30T00:00:30.761Z,96447.72
2022-07-30T00:02:56.561Z,96444.78
2022-07-30T00:05:22.514Z,96453.88
2022-07-30T00:07:48.414Z,96446.13
2022-07-30T00:10:14.468Z,96448.56
2022-07-30T00:12:40.395Z,96441.75
2022-07-30T00:15:07.081Z,96451.66
2022-07-30T00:17:32.982Z,96451.66
2022-07-30T00:19:58.981Z,96441.28
2022-07-30T00:22:25.216Z,96438.94
2022-07-30T00:24:50.999Z,96438.81
2022-07-30T00:27:16.872Z,96427.78
2022-07-30T00:29:44.926Z,96427.91
2022-07-30T00:32:11.344Z,96422.94
2022-07-30T00:34:37.199Z,96425.91
2022-07-30T00:37:03.449Z,96429.69
2022-07-30T00:39:29.925Z,96419.56
2022-07-30T00:41:58.728Z,96427.06
2022-07-30T00:44:25.095Z,96431.00
2022-07-30T00:46:51.394Z,96429.97
2022-07-30T00:49:17.390Z,96434.56
2022-07-30T00:51:43.447Z,96433.19
2022-07-30T00:54:09.460Z,96435.06
2022-07-30T00:56:35.346Z,96429.22
2022-07-30T00:59:01.177Z,96426.81
2022-07-30T01:01:27.115Z,96417.19
2022-07-30T01:03:53.029Z,96413.00
2022-07-30T01:06:18.934Z,96418.38
2022-07-30T01:08:44.733Z,96420.44
2022-07-30T01:11:11.247Z,96420.16
2022-07-30T01:13:37.457Z,96418.53
2022-07-30T01:16:03.977Z,96417.25
2022-07-30T01:18:50.994Z,96416.69
2022-07-30T01:21:23.296Z,96415.81
2022-07-30T01:23:52.834Z,96416.41
2022-07-30T01:26:21.509Z,96416.41
2022-07-30T01:28:54.113Z,96414.03
2022-07-30T01:31:21.140Z,96417.47
2022-07-30T01:33:48.825Z,96413.50
2022-07-30T01:36:16.627Z,96411.47
2022-07-30T01:38:46.391Z,96408.38
2022-07-30T01:41:14.371Z,96412.59
2022-07-30T01:43:41.167Z,96407.78
2022-07-30T01:46:09.772Z,96409.88
2022-07-30T01:48:41.712Z,96412.03
2022-07-30T01:51:09.305Z,96407.50
2022-07-30T01:53:37.803Z,96406.38
2022-07-30T01:56:04.945Z,96411.44
2022-07-30T01:58:34.850Z,96413.88
2022-07-30T02:01:00.920Z,96419.34
2022-07-30T02:03:28.865Z,96423.72
2022-07-30T02:06:07.205Z,96418.44
2022-07-30T02:08:40.994Z,96421.63
2022-07-30T02:11:35.930Z,96421.06
2022-07-30T02:14:04.811Z,96425.59
2022-07-30T02:16:35.185Z,96419.75
2022-07-30T02:19:13.232Z,96431.19
2022-07-30T02:21:50.577Z,96433.66
2022-07-30T02:24:21.290Z,96426.56
2022-07-30T02:26:51.358Z,96427.41
2022-07-30T02:29:19.400Z,96432.22
2022-07-30T02:31:45.906Z,96430.63
2022-07-30T02:34:13.620Z,96429.88
2022-07-30T02:36:42.524Z,96433.84
2022-07-30T02:39:09.574Z,96443.44
2022-07-30T02:41:39.389Z,96437.84
2022-07-30T02:44:05.955Z,96440.53
2022-07-30T02:46:32.144Z,96437.63
2022-07-30T02:48:58.632Z,96439.47
2022-07-30T02:51:27.123Z,96432.78
2022-07-30T02:53:54.868Z,96432.03
2022-07-30T02:56:22.026Z,96430.97
2022-07-30T02:58:50.361Z,96432.81
2022-07-30T03:01:18.606Z,96436.00
2022-07-30T03:03:45.818Z,96433.34
2022-07-30T03:06:14.595Z,96428.81
2022-07-30T03:08:44.540Z,96431.19
2022-07-30T03:11:12.389Z,96436.75
2022-07-30T03:13:38.624Z,96424.25
2022-07-30T03:16:08.655Z,96430.69
2022-07-30T03:18:36.116Z,96439.19
2022-07-30T03:21:03.160Z,96436.78
2022-07-30T03:23:34.064Z,96434.38
2022-07-30T03:26:02.324Z,96429.84
2022-07-30T03:28:32.314Z,96427.69
2022-07-30T03:30:59.000Z,96426.28
2022-07-30T03:33:25.272Z,96442.81
2022-07-30T03:36:05.158Z,96436.97
2022-07-30T03:38:31.531Z,96437.75
2022-07-30T03:40:58.370Z,96436.69
2022-07-30T03:43:33.358Z,96439.38
2022-07-30T03:46:04.432Z,96438.03
2022-07-30T03:48:33.659Z,96439.66
2022-07-30T03:51:02.368Z,96444.47
2022-07-30T03:53:28.811Z,96445.56
2022-07-30T03:55:55.463Z,96432.78
2022-07-30T03:58:21.746Z,96438.16
2022-07-30T04:00:49.524Z,96441.06
2022-07-30T04:03:26.527Z,96444.28
2022-07-30T04:05:52.949Z,96440.03
2022-07-30T04:08:19.060Z,96438.16
2022-07-30T04:10:48.443Z,96440.81
2022-07-30T04:13:14.409Z,96438.66
2022-07-30T04:16:38.793Z,96448.25
2022-07-30T04:18:47.884Z,96455.19
2022-07-30T04:21:17.545Z,96455.44
2022-07-30T04:24:02.187Z,96456.25
2022-07-30T04:26:33.117Z,96452.81
2022-07-30T04:29:00.202Z,96450.38
2022-07-30T04:31:27.580Z,96465.28
2022-07-30T04:33:53.445Z,96464.22
2022-07-30T04:36:19.229Z,96471.16
2022-07-30T04:38:45.087Z,96469.81
2022-07-30T04:41:11.479Z,96472.22
2022-07-30T04:43:38.461Z,96473.56
2022-07-30T04:46:04.421Z,96473.81
2022-07-30T04:48:30.301Z,96473.28
2022-07-30T04:51:00.991Z,96481.25
2022-07-30T04:53:28.935Z,96479.44
2022-07-30T04:55:56.574Z,96484.75
2022-07-30T04:58:23.693Z,96491.66
2022-07-30T05:00:51.519Z,96490.06
2022-07-30T05:03:18.384Z,96494.31
2022-07-30T05:05:45.786Z,96496.44
2022-07-30T05:08:12.285Z,96496.97
2022-07-30T05:10:38.235Z,96493.00
2022-07-30T05:13:04.129Z,96504.97
2022-07-30T05:15:36.234Z,96497.25
2022-07-30T05:18:03.579Z,96504.97
2022-07-30T05:20:29.381Z,96507.66
2022-07-30T05:22:55.219Z,96508.94
2022-07-30T05:25:21.000Z,96511.09
2022-07-30T05:27:46.827Z,96518.81
2022-07-30T05:30:12.949Z,96520.91
2022-07-30T05:32:38.920Z,96522.53
2022-07-30T05:35:05.055Z,96521.44
2022-07-30T05:37:32.324Z,96524.13
2022-07-30T05:40:03.443Z,96523.28
2022-07-30T05:42:29.599Z,96529.44
2022-07-30T05:44:56.240Z,96524.94
2022-07-30T05:47:22.634Z,96521.72
2022-07-30T05:49:48.663Z,96524.41
2022-07-30T05:52:14.889Z,96524.13
2022-07-30T05:54:41.025Z,96521.16
2022-07-30T05:57:06.815Z,96520.94
2022-07-30T05:59:32.668Z,96529.97
2022-07-30T06:01:59.998Z,96521.97
2022-07-30T06:04:25.890Z,96523.81
2022-07-30T06:06:51.832Z,96514.25
2022-07-30T06:09:17.625Z,96524.38
2022-07-30T06:11:52.439Z,96520.66
2022-07-30T06:14:23.378Z,96523.56
2022-07-30T06:16:49.413Z,96522.50
2022-07-30T06:19:19.659Z,96527.56
2022-07-30T06:22:05.763Z,96532.34
2022-07-30T06:24:31.524Z,96529.97
2022-07-30T06:26:57.587Z,96535.81
2022-07-30T06:29:23.525Z,96534.72
2022-07-30T06:31:49.433Z,96539.31
2022-07-30T06:34:15.244Z,96537.97
2022-07-30T06:36:41.090Z,96537.94
2022-07-30T06:39:07.204Z,96543.00
2022-07-30T06:41:33.054Z,96539.03
2022-07-30T06:43:58.856Z,96544.59
2022-07-30T06:46:24.762Z,96548.63
2022-07-30T06:48:51.052Z,96544.88
2022-07-30T06:51:16.887Z,96543.00
2022-07-30T06:53:45.076Z,96546.97
2022-07-30T06:56:11.738Z,96546.69
2022-07-30T06:58:38.500Z,96543.97
2022-07-30T07:01:05.000Z,96545.28
2022-07-30T07:03:40.218Z,96546.88
2022-07-30T07:06:06.425Z,96546.31
2022-07-30T07:08:35.563Z,96547.09
2022-07-30T07:11:01.449Z,96544.91
2022-07-30T07:13:27.285Z,96548.72
2022-07-30T07:15:53.131Z,96550.28
2022-07-30T07:18:19.010Z,96549.16
2022-07-30T07:20:46.001Z,96548.31
2022-07-30T07:23:12.631Z,96553.16
2022-07-30T07:25:40.396Z,96552.06
2022-07-30T07:28:11.809Z,96556.59
2022-07-30T07:30:38.992Z,96552.13
2022-07-30T07:33:04.919Z,96550.03
2022-07-30T07:35:31.064Z,96560.69
2022-07-30T07:37:56.850Z,96550.63
2022-07-30T07:40:22.846Z,96552.13
2022-07-30T07:42:50.524Z,96556.88
2022-07-30T07:45:16.424Z,96556.03
2022-07-30T07:47:49.178Z,96551.78
2022-07-30T07:50:19.320Z,96548.75
2022-07-30T07:52:45.142Z,96555.34
2022-07-30T07:55:11.020Z,96554.03
2022-07-30T07:57:41.595Z,96557.00
2022-07-30T08:00:09.633Z,96560.16
2022-07-30T08:02:35.973Z,96556.91
2022-07-30T08:05:06.589Z,96555.00
2022-07-30T08:07:32.998Z,96567.91
2022-07-30T08:09:59.153Z,96568.66
2022-07-30T08:12:25.719Z,96557.03
2022-07-30T08:14:52.133Z,96558.34
2022-07-30T08:17:19.053Z,96557.34
2022-07-30T08:19:47.133Z,96560.25
2022-07-30T08:22:13.097Z,96559.19
2022-07-30T08:24:39.192Z,96563.25
2022-07-30T08:27:05.358Z,96564.19
2022-07-30T08:29:31.634Z,96558.81
2022-07-30T08:31:57.555Z,96558.84
2022-07-30T08:34:25.835Z,96561.28
2022-07-30T08:36:51.840Z,96570.59
2022-07-30T08:39:17.717Z,96570.75
2022-07-30T08:41:44.368Z,96575.31
2022-07-30T08:44:11.818Z,96565.50
2022-07-30T08:46:41.809Z,96564.41
2022-07-30T08:49:13.590Z,96575.38
2022-07-30T08:51:39.709Z,96568.47
2022-07-30T08:54:05.988Z,96577.13
2022-07-30T08:56:33.432Z,96576.28
2022-07-30T08:59:00.444Z,96578.66
2022-07-30T09:01:26.999Z,96579.59
2022-07-30T09:03:54.050Z,96587.78
2022-07-30T09:06:20.023Z,96587.22
2022-07-30T09:08:45.927Z,96584.94
2022-07-30T09:11:12.001Z,96588.81
2022-07-30T09:13:43.728Z,96586.72
2022-07-30T09:16:24.482Z,96592.53
2022-07-30T09:18:52.085Z,96593.75
2022-07-30T09:21:26.072Z,96591.16
2022-07-30T09:23:56.886Z,96597.09
2022-07-30T09:26:22.843Z,96602.91
2022-07-30T09:28:48.822Z,96598.13
2022-07-30T09:31:17.182Z,96589.47
2022-07-30T09:33:44.799Z,96602.50
2022-07-30T09:36:16.255Z,96611.16
2022-07-30T09:38:51.972Z,96605.56
2022-07-30T09:41:38.704Z,96601.28
2022-07-30T09:44:05.675Z,96602.75
2022-07-30T09:46:46.568Z,96610.22
2022-07-30T09:49:17.091Z,96611.56
2022-07-30T09:51:56.359Z,96602.38
2022-07-30T09:54:25.338Z,96604.50
2022-07-30T09:57:23.246Z,96602.25
2022-07-30T09:59:53.048Z,96602.91
2022-07-30T10:02:18.979Z,96615.19
2022-07-30T10:04:46.277Z,96606.81
2022-07-30T10:07:25.381Z,96620.03
2022-07-30T10:09:53.406Z,96607.59
2022-07-30T10:12:20.656Z,96607.53
2022-07-30T10:14:53.481Z,96615.38
2022-07-30T10:17:21.441Z,96608.06
2022-07-30T10:19:47.712Z,96603.97
2022-07-30T10:22:17.009Z,96602.19
2022-07-30T10:24:45.069Z,96604.09
2022-07-30T10:27:11.350Z,96600.59
2022-07-30T10:29:42.848Z,96615.00
2022-07-30T10:32:09.450Z,96610.41
2022-07-30T10:34:37.437Z,96611.78
2022-07-30T10:37:10.838Z,96615.44
2022-07-30T10:39:54.311Z,96624.25
2022-07-30T10:42:29.196Z,96606.78
2022-07-30T10:45:27.370Z,96615.56
2022-07-30T10:47:55.403Z,96617.81
2022-07-30T10:50:26.437Z,96617.09
2022-07-30T10:52:53.767Z,96611.47
2022-07-30T10:55:37.298Z,96619.28
2022-07-30T10:58:10.320Z,96612.13
2022-07-30T11:00:56.670Z,96615.06
2022-07-30T11:03:40.966Z,96612.66
2022-07-30T11:06:16.463Z,96619.34
2022-07-30T11:08:50.770Z,96614.06
2022-07-30T11:11:20.416Z,96606.69
2022-07-30T11:13:56.517Z,96609.16
2022-07-30T11:16:32.276Z,96603.09
2022-07-30T11:19:19.433Z,96613.41
2022-07-30T11:21:49.543Z,96610.84
2022-07-30T11:24:46.465Z,96615.28
2022-07-30T11:27:41.668Z,96612.81
2022-07-30T11:30:28.456Z,96610.84
2022-07-30T11:33:03.395Z,96611.75
2022-07-30T11:35:34.525Z,96601.66
2022-07-30T11:38:08.736Z,96606.69
2022-07-30T11:41:00.828Z,96611.16
2022-07-30T11:43:34.944Z,96605.03
2022-07-30T11:46:10.876Z,96606.25
2022-07-30T11:48:53.613Z,96608.22
2022-07-30T11:51:20.434Z,96601.69
2022-07-30T11:54:10.031Z,96599.72
2022-07-30T11:56:36.439Z,96600.22
2022-07-30T11:59:05.081Z,96596.41
2022-07-30T12:01:32.687Z,96601.56
2022-07-30T12:04:02.379Z,96599.09
2022-07-30T12:06:31.193Z,96605.06
2022-07-30T12:08:58.869Z,96613.38
2022-07-30T12:11:31.802Z,96605.75
2022-07-30T12:13:59.337Z,96602.56
2022-07-30T12:16:26.388Z,96604.16
2022-07-30T12:18:52.563Z,96603.81
2022-07-30T12:21:20.417Z,96610.03
2022-07-30T12:23:57.571Z,96605.75
2022-07-30T12:26:29.044Z,96602.34
2022-07-30T12:29:00.942Z,96598.75
2022-07-30T12:31:27.417Z,96602.84
2022-07-30T12:33:55.601Z,96605.47
2022-07-30T12:36:33.147Z,96617.16
2022-07-30T12:38:59.626Z,96610.81
2022-07-30T12:41:42.496Z,96617.66
2022-07-30T12:44:09.276Z,96609.81
2022-07-30T12:46:41.126Z,96617.53
2022-07-30T12:49:16.070Z,96614.97
2022-07-30T12:52:00.037Z,96610.63
2022-07-30T12:54:26.788Z,96614.53
2022-07-30T12:56:57.410Z,96615.66
2022-07-30T12:59:23.881Z,96615.69
2022-07-30T13:01:51.614Z,96609.31
2022-07-30T13:04:17.470Z,96615.31
2022-07-30T13:06:43.438Z,96608.63
2022-07-30T13:09:20.293Z,96609.41
2022-07-30T13:11:48.706Z,96613.06
2022-07-30T13:14:16.487Z,96611.16
2022-07-30T13:16:42.634Z,96611.94
2022-07-30T13:19:11.002Z,96606.06
2022-07-30T13:21:38.198Z,96611.44
2022-07-30T13:24:04.442Z,96604.94
2022-07-30T13:26:30.938Z,96598.72
2022-07-30T13:29:01.542Z,96602.03
2022-07-30T13:31:27.856Z,96608.72
2022-07-30T13:34:08.677Z,96606.06
2022-07-30T13:36:34.522Z,96600.41
2022-07-30T13:39:00.368Z,96602.41
2022-07-30T13:41:26.267Z,96617.72
2022-07-30T13:43:52.152Z,96610.03
2022-07-30T13:46:17.995Z,96613.16
2022-07-30T13:48:44.128Z,96612.22
2022-07-30T13:51:10.072Z,96607.81
2022-07-30T13:53:35.976Z,96612.91
2022-07-30T13:56:02.776Z,96610.19
2022-07-30T13:58:31.814Z,96612.09
2022-07-30T14:01:01.537Z,96606.81
2022-07-30T14:03:27.452Z,96605.44
2022-07-30T14:05:53.697Z,96607.31
2022-07-30T14:08:19.689Z,96601.94
2022-07-30T14:10:45.470Z,96609.25
2022-07-30T14:13:19.418Z,96607.81
2022-07-30T14:15:47.807Z,96613.41
2022-07-30T14:18:13.639Z,96604.19
2022-07-30T14:20:39.727Z,96609.09
2022-07-30T14:23:05.577Z,96603.03
2022-07-30T14:25:31.500Z,96611.91
2022-07-30T14:27:57.353Z,96600.75
2022-07-30T14:30:23.970Z,96603.97
2022-07-30T14:32:52.616Z,96602.91
2022-07-30T14:35:23.293Z,96598.09
2022-07-30T14:37:49.112Z,96596.88
2022-07-30T14:40:15.040Z,96600.50
2022-07-30T14:42:41.865Z,96600.25
2022-07-30T14:45:09.200Z,96595.00
2022-07-30T14:47:35.564Z,96591.50
2022-07-30T14:50:02.652Z,96599.00
2022-07-30T14:52:28.576Z,96595.38
2022-07-30T14:54:54.420Z,96603.47
2022-07-30T14:57:20.329Z,96602.59
2022-07-30T14:59:46.252Z,96594.41
2022-07-30T15:02:12.295Z,96594.56
2022-07-30T15:04:38.213Z,96593.09
2022-07-30T15:07:04.036Z,96598.09
2022-07-30T15:09:33.415Z,96603.06
2022-07-30T15:12:08.504Z,96595.25
2022-07-30T15:14:39.969Z,96600.97
2022-07-30T15:17:06.543Z,96603.28
2022-07-30T15:19:32.498Z,96590.88
2022-07-30T15:22:01.185Z,96598.63
2022-07-30T15:24:27.765Z,96599.84
2022-07-30T15:26:55.613Z,96604.56
2022-07-30T15:29:23.367Z,96597.47
2022-07-30T15:31:50.268Z,96602.06
2022-07-30T15:34:18.733Z,96601.53
2022-07-30T15:36:44.873Z,96597.81
2022-07-30T15:39:10.718Z,96597.38
2022-07-30T15:41:37.118Z,96596.53
2022-07-30T15:44:03.366Z,96581.16
2022-07-30T15:46:29.402Z,96582.03
2022-07-30T15:48:55.705Z,96599.06
2022-07-30T15:51:21.656Z,96585.44
2022-07-30T15:53:47.980Z,96592.59
2022-07-30T15:56:15.120Z,96593.63
2022-07-30T15:58:43.572Z,96598.91
2022-07-30T16:01:09.690Z,96599.44
2022-07-30T16:03:35.561Z,96592.22
2022-07-30T16:06:01.418Z,96585.44
2022-07-30T16:08:27.281Z,96593.72
2022-07-30T16:10:53.069Z,96598.69
2022-07-30T16:13:18.949Z,96585.66
2022-07-30T16:15:44.865Z,96592.28
2022-07-30T16:18:10.681Z,96578.13
2022-07-30T16:20:36.599Z,96579.53
2022-07-30T16:23:02.515Z,96590.53
2022-07-30T16:25:28.343Z,96585.22
2022-07-30T16:27:54.211Z,96585.97
2022-07-30T16:30:20.244Z,96582.13
2022-07-30T16:32:46.163Z,96580.69
2022-07-30T16:35:13.466Z,96581.69
2022-07-30T16:37:39.941Z,96579.22
2022-07-30T16:40:06.161Z,96587.88
2022-07-30T16:42:32.035Z,96583.44
2022-07-30T16:44:57.884Z,96585.63
2022-07-30T16:47:23.704Z,96587.72
2022-07-30T16:49:49.506Z,96584.13
2022-07-30T16:52:17.294Z,96595.94
2022-07-30T16:54:43.262Z,96591.81
2022-07-30T16:57:10.763Z,96587.81
2022-07-30T16:59:37.199Z,96584.13
2022-07-30T17:02:03.992Z,96582.09
2022-07-30T17:04:30.029Z,96582.94
2022-07-30T17:06:55.886Z,96588.34
2022-07-30T17:09:24.522Z,96583.88
2022-07-30T17:11:52.263Z,96589.50
2022-07-30T17:14:21.452Z,96581.25
2022-07-30T17:16:47.261Z,96581.75
2022-07-30T17:19:13.176Z,96587.63
2022-07-30T17:21:39.066Z,96577.94
2022-07-30T17:24:10.290Z,96588.28
2022-07-30T17:26:38.901Z,96592.22
2022-07-30T17:29:05.007Z,96592.91
2022-07-30T17:31:30.861Z,96580.72
2022-07-30T17:33:56.702Z,96585.75
2022-07-30T17:36:22.869Z,96597.50
2022-07-30T17:38:48.722Z,96594.19
2022-07-30T17:41:14.525Z,96597.84
2022-07-30T17:43:40.514Z,96599.72
2022-07-30T17:46:06.427Z,96600.84
2022-07-30T17:48:32.340Z,96595.47
2022-07-30T17:50:58.265Z,96595.75
2022-07-30T17:53:27.892Z,96587.75
2022-07-30T17:55:57.945Z,96592.13
2022-07-30T17:58:24.429Z,96602.88
2022-07-30T18:00:50.419Z,96607.91
2022-07-30T18:03:16.438Z,96605.22
2022-07-30T18:05:42.296Z,96602.34
2022-07-30T18:08:08.112Z,96601.41
2022-07-30T18:10:33.979Z,96608.75
2022-07-30T18:12:59.777Z,96608.00
2022-07-30T18:15:45.622Z,96604.78
2022-07-30T18:18:11.490Z,96614.47
2022-07-30T18:20:37.417Z,96616.19
2022-07-30T18:23:18.203Z,96622.38
2022-07-30T18:25:52.952Z,96624.66
2022-07-30T18:28:19.303Z,96623.69
2022-07-30T18:30:45.418Z,96621.69
2022-07-30T18:33:11.278Z,96625.38
2022-07-30T18:35:37.353Z,96622.94
2022-07-30T18:38:03.237Z,96618.88
2022-07-30T18:40:29.151Z,96630.91
2022-07-30T18:42:54.972Z,96625.94
2022-07-30T18:45:21.999Z,96626.66
2022-07-30T18:47:48.392Z,96627.75
2022-07-30T18:50:15.304Z,96622.34
2022-07-30T18:52:41.457Z,96626.84
2022-07-30T18:55:10.505Z,96625.34
2022-07-30T18:57:36.600Z,96629.44
2022-07-30T19:00:05.880Z,96636.97
2022-07-30T19:02:31.730Z,96638.19
2022-07-30T19:04:58.216Z,96633.81
2022-07-30T19:07:24.239Z,96630.34
2022-07-30T19:09:54.466Z,96642.97
2022-07-30T19:12:21.353Z,96637.59
2022-07-30T19:14:47.620Z,96647.22
2022-07-30T19:17:15.473Z,96639.69
2022-07-30T19:19:41.612Z,96644.44
2022-07-30T19:22:07.573Z,96636.31
2022-07-30T19:24:33.388Z,96637.97
2022-07-30T19:26:59.256Z,96634.41
2022-07-30T19:29:25.155Z,96630.06
2022-07-30T19:31:50.998Z,96636.00
2022-07-30T19:34:16.841Z,96635.91
2022-07-30T19:36:42.694Z,96640.38
2022-07-30T19:39:12.125Z,96641.84
2022-07-30T19:41:42.026Z,96643.16
2022-07-30T19:44:09.143Z,96646.25
2022-07-30T19:46:35.487Z,96644.59
2022-07-30T19:49:01.967Z,96646.91
2022-07-30T19:52:09.798Z,96648.41
2022-07-30T19:54:15.389Z,96652.69
2022-07-30T19:56:41.296Z,96652.59
2022-07-30T19:59:14.875Z,96653.00
2022-07-30T20:01:42.329Z,96649.00
2022-07-30T20:04:08.200Z,96650.09
2022-07-30T20:06:34.374Z,96649.94
2022-07-30T20:09:00.310Z,96650.81
2022-07-30T20:11:36.156Z,96654.03
2022-07-30T20:14:03.180Z,96656.56
2022-07-30T20:16:29.029Z,96657.78
2022-07-30T20:18:54.911Z,96659.47
2022-07-30T20:21:20.835Z,96655.56
2022-07-30T20:24:06.895Z,96657.59
2022-07-30T20:26:33.081Z,96665.28
2022-07-30T20:28:59.540Z,96669.00
2022-07-30T20:31:26.549Z,96665.28
2022-07-30T20:33:53.863Z,96670.47
2022-07-30T20:36:21.547Z,96666.38
2022-07-30T20:38:48.513Z,96664.56
2022-07-30T20:41:15.036Z,96675.41
2022-07-30T20:43:51.544Z,96664.16
2022-07-30T20:46:17.689Z,96668.94
2022-07-30T20:48:45.066Z,96673.81
2022-07-30T20:51:11.012Z,96664.66
2022-07-30T20:53:37.097Z,96671.75
2022-07-30T20:56:03.206Z,96672.28
2022-07-30T20:58:29.092Z,96677.13
2022-07-30T21:00:55.420Z,96685.09
2022-07-30T21:03:21.805Z,96686.56
2022-07-30T21:05:52.632Z,96685.03
2022-07-30T21:08:19.030Z,96687.16
2022-07-30T21:10:46.139Z,96681.44
2022-07-30T21:13:12.191Z,96686.50
2022-07-30T21:18:23.899Z,96685.56
2022-07-30T21:20:49.749Z,96684.91
2022-07-30T21:23:21.445Z,96687.16
2022-07-30T21:28:35.172Z,96684.69
2022-07-30T21:31:02.574Z,96685.28
2022-07-30T21:33:31.142Z,96676.06
2022-07-30T21:35:57.308Z,96669.06
2022-07-30T21:38:25.665Z,96672.09
2022-07-30T21:40:51.510Z,96673.19
2022-07-30T21:43:17.367Z,96671.72
2022-07-30T21:45:55.709Z,96672.00
2022-07-30T21:48:21.587Z,96662.03
2022-07-30T21:50:47.502Z,96666.81
2022-07-30T21:53:14.279Z,96667.41
2022-07-30T21:55:52.366Z,96667.66
2022-07-30T21:58:25.812Z,96663.88
2022-07-30T22:00:54.294Z,96665.47
2022-07-30T22:04:00.603Z,96664.28
2022-07-30T22:06:12.426Z,96660.53
2022-07-30T22:08:38.832Z,96657.38
2022-07-30T22:11:08.877Z,96648.88
2022-07-30T22:13:35.405Z,96650.41
2022-07-30T22:16:17.507Z,96647.84
2022-07-30T22:18:44.885Z,96648.66
2022-07-30T22:21:10.660Z,96651.47
2022-07-30T22:23:40.397Z,96652.22
2022-07-30T22:26:23.569Z,96644.44
2022-07-30T22:28:52.696Z,96643.00
2022-07-30T22:31:20.538Z,96642.13
2022-07-30T22:33:46.417Z,96643.16
2022-07-30T22:36:15.714Z,96643.81
2022-07-30T22:38:41.739Z,96649.72
2022-07-30T22:41:10.955Z,96648.28
2022-07-30T22:43:41.107Z,96640.53
2022-07-30T22:46:19.012Z,96642.75
2022-07-30T22:48:53.487Z,96642.28
2022-07-30T22:51:19.429Z,96637.41
2022-07-30T22:54:10.377Z,96640.31
2022-07-30T22:56:32.393Z,96633.53
2022-07-30T22:58:58.273Z,96633.09
2022-07-30T23:01:24.408Z,96627.13
2022-07-30T23:03:50.321Z,96637.09
2022-07-30T23:06:16.306Z,96634.25
2022-07-30T23:08:42.339Z,96622.69
2022-07-30T23:11:08.454Z,96621.09
2022-07-30T23:12:26.972Z,96685.16
2022-07-30T23:12:33.096Z,96684.91
2022-07-30T23:13:37.809Z,96628.78
2022-07-30T23:16:04.947Z,96623.19
2022-07-30T23:18:30.842Z,96620.66
2022-07-30T23:21:00.257Z,96627.75
2022-07-30T23:23:27.969Z,96627.84
2022-07-30T23:25:56.857Z,96612.75
2022-07-30T23:28:23.683Z,96618.31
2022-07-30T23:30:49.668Z,96616.66
2022-07-30T23:33:18.498Z,96617.00
2022-07-30T23:35:44.591Z,96617.69
2022-07-30T23:38:10.431Z,96619.44
2022-07-30T23:40:36.204Z,96622.06
2022-07-30T23:43:02.048Z,96614.44
2022-07-30T23:45:27.956Z,96611.56
2022-07-30T23:48:02.399Z,96605.72
2022-07-30T23:50:33.350Z,96608.41
2022-07-30T23:53:00.804Z,96607.75
2022-07-30T23:55:27.402Z,96600.72
2022-07-30T23:57:53.590Z,96601.38
